Big Bear Station Historical Data
Daily Summary for July 27, 2017 Units:  English    Metric   Both
« Previous Day
Next Day »
Daily Weekly Monthly Yearly Custom
  High: Low: Average:
Temperature: 87.1 °F 52.9 °F 67.9 °F
Dew Point: 55.8 °F 41.2 °F 47.1 °F
Humidity: 89 % 22 % 54 %
Wind Speed: 8.9 mph 0.0 mph 1.8 mph
Wind Gust: -999.0 mph - -
Wind:- - West
Pressure: 30.31 in 30.25 in -
Precipitation: 0.00 in    
Historical Graphs
 
 
Tabular Data for July 27, 2017
Time Temperature Dew Point Pressure Wind Wind Speed Wind Gust Humidity Rainfall Rate (Hourly)
00:04 61.0 °F 51.1 °F 30.31 in Calm   -999.0 mph 70 % 0 in
00:19 59.4 °F 50.7 °F 30.31 in South 2.2 mph -999.0 mph 73 % 0 in
00:34 58.8 °F 50.2 °F 30.31 in Calm   -999.0 mph 73 % 0 in
00:49 58.1 °F 50.2 °F 30.31 in Calm   -999.0 mph 75 % 0 in
01:05 57.6 °F 50.1 °F 30.31 in Calm   -999.0 mph 76 % 0 in
01:20 57.0 °F 48.8 °F 30.30 in Calm   -999.0 mph 74 % 0 in
01:35 56.7 °F 48.9 °F 30.30 in Calm   -999.0 mph 75 % 0 in
01:51 56.3 °F 49.2 °F 30.30 in Calm   -999.0 mph 77 % 0 in
02:06 55.9 °F 48.8 °F 30.30 in Calm   -999.0 mph 77 % 0 in
02:21 55.8 °F 49.4 °F 30.30 in Calm   -999.0 mph 79 % 0 in
02:36 55.4 °F 49.0 °F 30.30 in Calm   -999.0 mph 79 % 0 in
02:52 54.9 °F 48.5 °F 30.30 in Calm   -999.0 mph 79 % 0 in
03:07 54.9 °F 48.8 °F 30.30 in Calm   -999.0 mph 80 % 0 in
03:22 54.5 °F 49.1 °F 30.29 in Calm   -999.0 mph 82 % 0 in
03:37 54.3 °F 49.2 °F 30.29 in Calm   -999.0 mph 83 % 0 in
03:52 54.0 °F 49.3 °F 30.30 in Calm   -999.0 mph 84 % 0 in
04:08 54.0 °F 49.3 °F 30.30 in Calm   -999.0 mph 84 % 0 in
04:23 53.4 °F 48.7 °F 30.30 in Calm   -999.0 mph 84 % 0 in
04:38 53.2 °F 48.2 °F 30.30 in Calm   -999.0 mph 83 % 0 in
04:53 53.1 °F 48.4 °F 30.30 in Calm   -999.0 mph 84 % 0 in
05:08 53.1 °F 48.4 °F 30.30 in Calm   -999.0 mph 84 % 0 in
05:24 53.2 °F 49.1 °F 30.30 in Calm   -999.0 mph 86 % 0 in
05:39 53.2 °F 49.4 °F 30.30 in Calm   -999.0 mph 87 % 0 in
05:54 53.1 °F 49.6 °F 30.30 in Calm   -999.0 mph 88 % 0 in
06:09 52.9 °F 49.4 °F 30.31 in Calm   -999.0 mph 88 % 0 in
06:24 53.1 °F 49.9 °F 30.30 in Calm   -999.0 mph 89 % 0 in
06:40 53.1 °F 49.6 °F 30.31 in Calm   -999.0 mph 88 % 0 in
06:55 53.4 °F 49.9 °F 30.31 in Calm   -999.0 mph 88 % 0 in
07:10 53.6 °F 50.1 °F 30.31 in Calm   -999.0 mph 88 % 0 in
07:25 53.8 °F 50.3 °F 30.31 in Calm   -999.0 mph 88 % 0 in
07:41 54.9 °F 51.1 °F 30.31 in Calm   -999.0 mph 87 % 0 in
07:56 55.8 °F 52.3 °F 30.31 in Calm   -999.0 mph 88 % 0 in
08:11 57.2 °F 53.7 °F 30.31 in Calm   -999.0 mph 88 % 0 in
08:26 59.0 °F 55.1 °F 30.31 in Calm   -999.0 mph 87 % 0 in
08:42 61.0 °F 55.8 °F 30.31 in Calm   -999.0 mph 83 % 0 in
08:57 63.3 °F 54.9 °F 30.31 in NW 1.7 mph -999.0 mph 74 % 0 in
09:13 65.7 °F 51.0 °F 30.31 in NNW 1.1 mph -999.0 mph 59 % 0 in
09:28 68.0 °F 47.0 °F 30.30 in Calm   -999.0 mph 47 % 0 in
09:43 71.6 °F 47.9 °F 30.30 in NW 3.7 mph -999.0 mph 43 % 0 in
09:58 73.0 °F 47.3 °F 30.30 in NNW 4.2 mph -999.0 mph 40 % 0 in
10:14 74.1 °F 46.9 °F 30.31 in NNW 4.2 mph -999.0 mph 38 % 0 in
10:29 74.5 °F 47.2 °F 30.30 in NW 5.8 mph -999.0 mph 38 % 0 in
10:44 75.0 °F 47.7 °F 30.31 in NW 3.7 mph -999.0 mph 38 % 0 in
10:59 75.2 °F 47.9 °F 30.31 in NW 3.2 mph -999.0 mph 38 % 0 in
11:15 77.0 °F 48.7 °F 30.30 in NW 3.7 mph -999.0 mph 37 % 0 in
11:30 76.8 °F 47.8 °F 30.30 in WNW 2.7 mph -999.0 mph 36 % 0 in
11:45 77.4 °F 48.4 °F 30.30 in NW 2.7 mph -999.0 mph 36 % 0 in
12:00 79.2 °F 50.0 °F 30.30 in WNW 5.8 mph -999.0 mph 36 % 0 in
12:16 80.4 °F 50.3 °F 30.30 in WNW 3.7 mph -999.0 mph 35 % 0 in
12:31 82.6 °F 49.8 °F 30.30 in NW 4.7 mph -999.0 mph 32 % 0 in
12:46 82.4 °F 47.9 °F 30.30 in NNW 3.7 mph -999.0 mph 30 % 0 in
13:01 83.7 °F 49.9 °F 30.30 in NNW 3.7 mph -999.0 mph 31 % 0 in
13:17 83.8 °F 49.1 °F 30.30 in NNW 4.2 mph -999.0 mph 30 % 0 in
13:32 84.2 °F 48.5 °F 30.29 in NNW 4.2 mph -999.0 mph 29 % 0 in
13:47 85.1 °F 46.4 °F 30.29 in NNW 5.8 mph -999.0 mph 26 % 0 in
14:03 85.5 °F 44.6 °F 30.28 in SW 3.2 mph -999.0 mph 24 % 0 in
14:18 83.8 °F 43.2 °F 30.28 in North 3.2 mph -999.0 mph 24 % 0 in
14:33 83.5 °F 41.8 °F 30.28 in South 2.2 mph -999.0 mph 23 % 0 in
14:49 81.3 °F 43.1 °F 30.28 in West 2.2 mph -999.0 mph 26 % 0 in
15:04 82.6 °F 43.2 °F 30.28 in NNW 5.8 mph -999.0 mph 25 % 0 in
15:19 79.9 °F 42.0 °F 30.28 in NNW 4.2 mph -999.0 mph 26 % 0 in
15:34 81.7 °F 41.4 °F 30.28 in NE 5.8 mph -999.0 mph 24 % 0 in
15:50 82.8 °F 41.2 °F 30.27 in NW 7.8 mph -999.0 mph 23 % 0 in
16:05 83.1 °F 45.7 °F 30.27 in North 3.7 mph -999.0 mph 27 % 0 in
16:20 82.6 °F 42.2 °F 30.26 in West 7.8 mph -999.0 mph 24 % 0 in
16:36 81.5 °F 42.3 °F 30.26 in NNW 4.2 mph -999.0 mph 25 % 0 in
16:51 84.2 °F 43.5 °F 30.25 in SSW 2.2 mph -999.0 mph 24 % 0 in
17:06 86.7 °F 43.3 °F 30.25 in NW 8.9 mph -999.0 mph 22 % 0 in
17:21 83.7 °F 42.0 °F 30.25 in ENE 2.7 mph -999.0 mph 23 % 0 in
17:37 87.1 °F 43.7 °F 30.25 in South 1.7 mph -999.0 mph 22 % 0 in
17:52 85.5 °F 42.3 °F 30.25 in NNW 3.7 mph -999.0 mph 22 % 0 in
18:07 84.4 °F 43.7 °F 30.25 in NW 4.2 mph -999.0 mph 24 % 0 in
18:23 81.5 °F 43.3 °F 30.25 in NNE 2.2 mph -999.0 mph 26 % 0 in
18:38 78.8 °F 42.0 °F 30.25 in West 4.7 mph -999.0 mph 27 % 0 in
18:53 78.6 °F 45.4 °F 30.25 in NW 3.7 mph -999.0 mph 31 % 0 in
19:09 76.5 °F 45.3 °F 30.25 in WNW 3.2 mph -999.0 mph 33 % 0 in
19:24 73.6 °F 45.0 °F 30.26 in Calm   -999.0 mph 36 % 0 in
19:39 71.2 °F 45.0 °F 30.26 in WSW 1.7 mph -999.0 mph 39 % 0 in
19:54 69.4 °F 44.7 °F 30.26 in Calm   -999.0 mph 41 % 0 in
20:10 68.2 °F 44.2 °F 30.26 in SE 2.2 mph -999.0 mph 42 % 0 in
20:25 67.3 °F 44.0 °F 30.26 in Calm   -999.0 mph 43 % 0 in
20:40 66.7 °F 44.1 °F 30.26 in Calm   -999.0 mph 44 % 0 in
20:56 66.0 °F 43.5 °F 30.26 in Calm   -999.0 mph 44 % 0 in
21:11 65.3 °F 42.8 °F 30.26 in NW 1.1 mph -999.0 mph 44 % 0 in
21:26 64.9 °F 43.1 °F 30.27 in Calm   -999.0 mph 45 % 0 in
21:41 64.4 °F 44.8 °F 30.27 in Calm   -999.0 mph 49 % 0 in
22:12 63.7 °F 47.2 °F 30.27 in South 1.7 mph -999.0 mph 55 % 0 in
22:27 63.1 °F 46.2 °F 30.27 in Calm   -999.0 mph 54 % 0 in
22:43 62.8 °F 45.4 °F 30.27 in Calm   -999.0 mph 53 % 0 in
22:58 62.2 °F 44.9 °F 30.27 in Calm   -999.0 mph 53 % 0 in
23:13 62.1 °F 44.8 °F 30.27 in Calm   -999.0 mph 53 % 0 in
23:28 61.3 °F 43.5 °F 30.27 in Calm   -999.0 mph 52 % 0 in
23:44 60.6 °F 43.4 °F 30.27 in Calm   -999.0 mph 53 % 0 in
23:59 59.5 °F 44.7 °F 30.27 in Calm   -999.0 mph 58 % 0 in
Big Bear CA Weather
Compliments of Weather Underground - 1.5 mb